Time;durP1;ratioP1;P1;durP2;ratioP2;P2;SDS_P1;SDS_P2;PMS_P1;PMS_P2;Temp;Humidity;BMP_temperature;BMP_pressure;BME280_temperature;BME280_humidity;BME280_pressure;Samples;Min_cycle;Max_cycle;Signal;HPM_P1;HPM_P2
2023/04/03 00:00:56;;;;;;;2.95;0.60;;;5.70;99.90;;;;;;5160785;27;20057;-76
2023/04/03 00:03:21;;;;;;;3.42;0.70;;;5.60;99.90;;;;;;5161126;27;20457;-76
2023/04/03 00:05:47;;;;;;;2.70;0.45;;;5.60;99.90;;;;;;5160694;27;20117;-76
2023/04/03 00:08:13;;;;;;;3.10;0.52;;;5.60;99.90;;;;;;5161354;27;20035;-76
2023/04/03 00:10:39;;;;;;;3.80;0.52;;;5.60;99.90;;;;;;5142603;27;20320;-76
2023/04/03 00:13:05;;;;;;;4.47;0.63;;;5.70;99.90;;;;;;5161151;27;20045;-76
2023/04/03 00:15:31;;;;;;;2.67;0.43;;;5.60;99.90;;;;;;5160838;27;20037;-76
2023/04/03 00:17:57;;;;;;;2.70;0.75;;;5.60;99.90;;;;;;5160222;27;20034;-76
2023/04/03 00:20:22;;;;;;;6.22;0.65;;;5.60;99.90;;;;;;5160899;27;20045;-76
2023/04/03 00:22:48;;;;;;;2.28;0.60;;;5.50;99.90;;;;;;5125265;27;20070;-76
2023/04/03 00:25:14;;;;;;;2.63;0.50;;;5.50;99.90;;;;;;5160162;27;20093;-76
2023/04/03 00:27:40;;;;;;;2.35;0.50;;;5.40;99.90;;;;;;5159701;27;20058;-76
2023/04/03 00:30:08;;;;;;;8.43;0.80;;;5.30;99.90;;;;;;5160100;27;20039;-77
2023/04/03 00:32:34;;;;;;;2.80;0.45;;;5.30;99.90;;;;;;5160590;27;20052;-77
2023/04/03 00:34:59;;;;;;;2.85;0.63;;;5.20;99.90;;;;;;5159704;27;20039;-77
2023/04/03 00:37:25;;;;;;;3.78;0.60;;;5.20;99.90;;;;;;5160778;27;20094;-77
2023/04/03 00:39:51;;;;;;;1.40;0.50;;;5.20;99.90;;;;;;5160662;27;20046;-77
2023/04/03 00:42:17;;;;;;;3.40;0.40;;;5.30;99.90;;;;;;5160379;27;20038;-76
2023/04/03 00:44:45;;;;;;;2.42;0.60;;;5.40;99.90;;;;;;5160109;27;20105;-76
2023/04/03 00:47:15;;;;;;;3.58;0.70;;;5.40;99.90;;;;;;5141371;27;20055;-76
2023/04/03 00:49:42;;;;;;;2.92;0.73;;;5.40;99.90;;;;;;5160051;27;20534;-76
2023/04/03 00:52:13;;;;;;;1.10;0.40;;;5.20;99.90;;;;;;5160026;27;20031;-76
2023/04/03 00:54:41;;;;;;;2.50;0.60;;;5.10;99.90;;;;;;5160369;27;20043;-76
2023/04/03 00:57:08;;;;;;;2.97;0.68;;;5.30;99.90;;;;;;5159679;27;20046;-77
2023/04/03 00:59:40;;;;;;;5.03;0.60;;;5.10;99.90;;;;;;5160011;27;20324;-77
2023/04/03 01:02:06;;;;;;;1.80;0.95;;;5.20;99.90;;;;;;5159500;27;20495;-77
2023/04/03 01:04:37;;;;;;;4.65;0.75;;;5.30;99.90;;;;;;5159149;27;20485;-77
2023/04/03 01:07:27;;;;;;;4.13;0.65;;;5.30;99.90;;;;;;5160010;27;20034;-76
2023/04/03 01:09:57;;;;;;;2.28;0.70;;;5.30;99.90;;;;;;5159757;27;20117;-76
2023/04/03 01:12:26;;;;;;;3.53;0.70;;;5.30;99.90;;;;;;5124429;27;20039;-76
2023/04/03 01:14:55;;;;;;;2.40;0.50;;;5.30;99.90;;;;;;5159562;27;20049;-77
2023/04/03 01:17:36;;;;;;;2.55;0.50;;;5.40;99.90;;;;;;5141472;27;20095;-76
2023/04/03 01:20:20;;;;;;;4.28;0.45;;;5.30;99.90;;;;;;5159746;27;20408;-76
2023/04/03 01:23:14;;;;;;;2.70;0.82;;;5.20;99.90;;;;;;5159542;27;20450;-76
2023/04/03 01:25:43;;;;;;;3.28;0.50;;;5.20;99.90;;;;;;5159907;27;20039;-76
2023/04/03 01:28:15;;;;;;;6.18;1.00;;;5.10;99.90;;;;;;5159692;27;20031;-77
2023/04/03 01:31:05;;;;;;;2.42;0.82;;;5.20;99.90;;;;;;5159139;27;20046;-77
2023/04/03 01:33:31;;;;;;;2.65;0.50;;;5.10;99.90;;;;;;5141068;27;20046;-77
2023/04/03 01:35:57;;;;;;;4.65;0.80;;;5.10;99.90;;;;;;5159159;27;20038;-77
2023/04/03 01:38:23;;;;;;;5.47;0.75;;;5.10;99.90;;;;;;5159678;27;20427;-77
2023/04/03 01:40:48;;;;;;;4.88;1.52;;;5.10;99.90;;;;;;5159248;27;20038;-77
2023/04/03 01:43:14;;;;;;;2.13;0.50;;;5.00;99.90;;;;;;5159715;27;20432;-77
2023/04/03 01:45:40;;;;;;;4.68;0.70;;;5.00;99.90;;;;;;5159089;27;20046;-77
2023/04/03 01:48:05;;;;;;;4.28;0.70;;;5.00;99.90;;;;;;5159501;27;20042;-77
2023/04/03 01:50:31;;;;;;;4.30;0.68;;;5.00;99.90;;;;;;5159394;27;20038;-77
2023/04/03 01:52:57;;;;;;;2.08;0.60;;;5.00;99.90;;;;;;5158959;27;20415;-77
2023/04/03 01:55:23;;;;;;;3.05;0.70;;;5.00;99.90;;;;;;5159344;27;20031;-77
2023/04/03 01:57:48;;;;;;;3.88;1.00;;;5.00;99.90;;;;;;5159307;27;20035;-77
2023/04/03 02:00:14;;;;;;;2.55;0.50;;;5.00;99.90;;;;;;5158537;27;20039;-76
2023/04/03 02:02:40;;;;;;;3.58;0.63;;;5.00;99.90;;;;;;5140639;27;20082;-77
2023/04/03 02:05:06;;;;;;;4.40;0.80;;;5.00;99.90;;;;;;5158824;27;20074;-77
2023/04/03 02:07:32;;;;;;;6.90;0.88;;;4.90;99.90;;;;;;5158546;27;20423;-77
2023/04/03 02:09:57;;;;;;;2.15;0.73;;;4.80;99.90;;;;;;5159271;27;20041;-77
2023/04/03 02:12:23;;;;;;;2.67;0.77;;;4.80;99.90;;;;;;5158639;27;20039;-77
2023/04/03 02:14:49;;;;;;;7.97;1.13;;;4.80;99.90;;;;;;5159004;27;20068;-77
2023/04/03 02:17:14;;;;;;;2.92;0.73;;;4.80;99.90;;;;;;5159279;27;20449;-77
2023/04/03 02:19:40;;;;;;;3.38;0.77;;;4.80;99.90;;;;;;5161852;27;20031;-77
2023/04/03 02:22:06;;;;;;;5.82;0.90;;;4.80;99.90;;;;;;5163444;27;20049;-77
2023/04/03 02:24:32;;;;;;;8.90;1.10;;;4.80;99.90;;;;;;5162762;27;20034;-77
2023/04/03 02:26:57;;;;;;;8.27;1.23;;;4.70;99.90;;;;;;5162942;27;20420;-77
2023/04/03 02:29:23;;;;;;;4.90;0.90;;;4.80;99.90;;;;;;5162237;27;20049;-77
2023/04/03 02:31:50;;;;;;;2.58;0.95;;;4.70;99.90;;;;;;5162722;27;20031;-77
2023/04/03 02:34:16;;;;;;;3.50;0.77;;;4.70;99.90;;;;;;5143547;27;20042;-77
2023/04/03 02:36:42;;;;;;;4.57;0.80;;;4.60;99.90;;;;;;5162252;27;20045;-78
2023/04/03 02:39:07;;;;;;;6.13;0.93;;;4.60;99.90;;;;;;5162278;27;20035;-77
2023/04/03 02:41:35;;;;;;;4.68;0.93;;;4.60;99.90;;;;;;5162049;27;20035;-77
2023/04/03 02:44:05;;;;;;;5.40;1.02;;;4.50;99.90;;;;;;5162405;27;20043;-77
2023/04/03 02:46:31;;;;;;;2.03;0.70;;;4.50;99.90;;;;;;5162220;27;20066;-77
2023/04/03 02:48:57;;;;;;;1.70;0.60;;;4.40;99.90;;;;;;5144402;27;20030;-77
2023/04/03 02:51:23;;;;;;;2.00;0.75;;;4.40;99.90;;;;;;5143950;27;20496;-77
2023/04/03 02:53:49;;;;;;;4.63;1.25;;;4.30;99.90;;;;;;5162645;27;20050;-77
2023/04/03 02:56:16;;;;;;;3.53;1.00;;;4.30;99.90;;;;;;5162047;27;20050;-77
2023/04/03 02:58:42;;;;;;;6.80;0.82;;;4.40;99.90;;;;;;5127116;27;20081;-77
2023/04/03 03:01:08;;;;;;;6.05;1.10;;;4.30;99.90;;;;;;5161349;27;20078;-77
2023/04/03 03:03:34;;;;;;;5.25;0.85;;;4.20;99.90;;;;;;5143783;27;20072;-78
2023/04/03 03:06:10;;;;;;;3.50;0.95;;;4.30;99.90;;;;;;5162179;27;20031;-78
2023/04/03 03:08:36;;;;;;;6.72;0.90;;;4.30;99.90;;;;;;5161988;27;20043;-77
2023/04/03 03:11:03;;;;;;;2.20;0.90;;;4.20;99.90;;;;;;5162620;27;20324;-77
2023/04/03 03:13:29;;;;;;;4.68;1.15;;;4.20;99.90;;;;;;5161854;27;20117;-78
2023/04/03 03:15:54;;;;;;;3.88;0.90;;;4.20;99.90;;;;;;5161976;27;20069;-78
2023/04/03 03:18:20;;;;;;;6.63;1.20;;;4.20;99.90;;;;;;5162172;27;20062;-77
2023/04/03 03:20:46;;;;;;;7.18;1.20;;;4.10;99.90;;;;;;5160996;27;20042;-77
2023/04/03 03:23:12;;;;;;;4.53;0.80;;;4.00;99.90;;;;;;5161532;27;20035;-77
2023/04/03 03:25:40;;;;;;;6.47;1.15;;;3.90;99.90;;;;;;5161587;27;20034;-77
2023/04/03 03:28:06;;;;;;;3.90;1.10;;;3.90;99.90;;;;;;5161339;27;20030;-78
2023/04/03 03:30:31;;;;;;;5.53;1.70;;;4.00;99.90;;;;;;5161436;27;20493;-77
2023/04/03 03:32:57;;;;;;;7.20;1.50;;;4.10;99.90;;;;;;5161427;27;20112;-77
2023/04/03 03:35:23;;;;;;;4.55;1.00;;;4.10;99.90;;;;;;5161668;27;20043;-78
2023/04/03 03:37:48;;;;;;;6.82;1.27;;;4.00;99.90;;;;;;5161922;27;20038;-78
2023/04/03 03:40:14;;;;;;;7.03;1.45;;;3.90;99.90;;;;;;5161610;27;20427;-78
2023/04/03 03:42:40;;;;;;;5.38;1.33;;;3.90;99.90;;;;;;5161863;27;20069;-77
2023/04/03 03:45:06;;;;;;;3.88;1.60;;;4.00;99.90;;;;;;5143193;27;20311;-77
2023/04/03 03:47:32;;;;;;;8.82;1.75;;;4.00;99.90;;;;;;5161618;27;20353;-78
2023/04/03 03:49:58;;;;;;;3.60;1.10;;;4.00;99.90;;;;;;5154862;27;20092;-78
2023/04/03 03:52:23;;;;;;;4.10;1.15;;;4.00;99.90;;;;;;5158595;27;20041;-78
2023/04/03 03:54:49;;;;;;;6.60;1.38;;;4.00;99.90;;;;;;5160969;27;20045;-78
2023/04/03 03:57:15;;;;;;;7.97;1.10;;;3.90;99.90;;;;;;5143201;27;20054;-78
2023/04/03 03:59:41;;;;;;;4.82;1.33;;;3.80;99.90;;;;;;5161131;27;20487;-78
2023/04/03 04:02:07;;;;;;;5.40;1.30;;;3.90;99.90;;;;;;5160553;27;20055;-78
2023/04/03 04:04:33;;;;;;;5.30;1.60;;;3.80;99.90;;;;;;5160955;27;20069;-78
2023/04/03 04:07:00;;;;;;;8.10;1.52;;;3.80;99.90;;;;;;5161309;27;20035;-78
2023/04/03 04:09:26;;;;;;;5.60;1.50;;;3.90;99.90;;;;;;5160402;27;20480;-78
2023/04/03 04:11:52;;;;;;;6.78;1.83;;;4.00;99.90;;;;;;5161034;27;20133;-78
2023/04/03 04:14:20;;;;;;;6.13;1.88;;;3.90;99.90;;;;;;5160345;27;20448;-78
2023/04/03 04:16:46;;;;;;;6.25;1.80;;;4.00;99.90;;;;;;5161159;27;20170;-78
2023/04/03 04:19:12;;;;;;;7.28;1.92;;;4.00;99.90;;;;;;5161112;27;20042;-78
2023/04/03 04:21:39;;;;;;;5.22;1.60;;;4.10;99.90;;;;;;5160830;27;20373;-78
2023/04/03 04:24:05;;;;;;;6.90;1.65;;;4.10;99.90;;;;;;5160815;27;20050;-78
2023/04/03 04:26:31;;;;;;;5.45;1.30;;;4.00;99.90;;;;;;5160868;27;20037;-78
2023/04/03 04:28:57;;;;;;;7.75;1.60;;;3.90;99.90;;;;;;5161152;27;20121;-78
2023/04/03 04:31:22;;;;;;;4.65;1.52;;;3.90;99.90;;;;;;5142557;27;20062;-78
2023/04/03 04:33:48;;;;;;;5.53;1.30;;;3.90;99.90;;;;;;5160097;27;20050;-78
2023/04/03 04:36:14;;;;;;;3.28;1.40;;;3.90;99.90;;;;;;5160816;27;20044;-78
2023/04/03 04:38:40;;;;;;;9.90;1.38;;;3.80;99.90;;;;;;5160651;27;20065;-78
2023/04/03 04:41:06;;;;;;;3.25;1.35;;;3.70;99.90;;;;;;5141157;27;20420;-78
2023/04/03 04:43:32;;;;;;;4.75;1.58;;;3.70;99.90;;;;;;5160223;27;20111;-77
2023/04/03 04:46:10;;;;;;;9.18;1.90;;;3.70;99.90;;;;;;5160712;27;20328;-77
2023/04/03 04:48:36;;;;;;;7.22;1.73;;;3.70;99.90;;;;;;5141554;27;20072;-77
2023/04/03 04:51:02;;;;;;;6.50;1.95;;;3.60;99.90;;;;;;5160340;27;20042;-77
2023/04/03 04:53:28;;;;;;;4.88;1.58;;;3.60;99.90;;;;;;5160246;27;20054;-78
2023/04/03 04:55:53;;;;;;;6.57;2.40;;;3.70;99.90;;;;;;5159649;27;20043;-78
2023/04/03 04:58:19;;;;;;;8.00;1.48;;;3.70;99.90;;;;;;5159920;27;20063;-78
2023/04/03 05:00:45;;;;;;;5.20;1.75;;;3.80;99.90;;;;;;5159805;27;20054;-77
2023/04/03 05:03:11;;;;;;;10.20;2.13;;;3.70;99.90;;;;;;5160218;27;20039;-78
2023/04/03 05:05:37;;;;;;;6.57;1.88;;;3.70;99.90;;;;;;5159964;27;20050;-77
2023/04/03 05:08:04;;;;;;;8.45;1.83;;;3.70;99.90;;;;;;5160005;27;20072;-77
2023/04/03 05:10:31;;;;;;;8.48;1.70;;;3.70;99.90;;;;;;5159718;27;20344;-78
2023/04/03 05:12:57;;;;;;;7.97;1.85;;;3.70;99.90;;;;;;5159949;27;20042;-78
2023/04/03 05:15:23;;;;;;;6.55;2.28;;;3.60;99.90;;;;;;5159858;27;20088;-77
2023/04/03 05:17:49;;;;;;;6.32;1.80;;;3.70;99.90;;;;;;5160158;27;20035;-77
2023/04/03 05:20:15;;;;;;;6.78;1.95;;;3.50;99.90;;;;;;5159341;27;20435;-77
2023/04/03 05:22:40;;;;;;;9.32;2.13;;;3.50;99.90;;;;;;5159408;27;20115;-77
2023/04/03 05:25:06;;;;;;;9.25;2.28;;;3.60;99.90;;;;;;5159403;27;20070;-77
2023/04/03 05:27:32;;;;;;;11.35;2.00;;;3.50;99.90;;;;;;5141579;27;20031;-77
2023/04/03 05:29:59;;;;;;;7.20;2.65;;;3.60;99.90;;;;;;5160106;27;20043;-77
2023/04/03 05:32:26;;;;;;;10.40;2.58;;;3.60;99.90;;;;;;5159778;27;20049;-77
2023/04/03 05:34:52;;;;;;;7.07;2.28;;;3.70;99.90;;;;;;5159013;27;20095;-77
2023/04/03 05:37:18;;;;;;;8.65;2.38;;;3.70;99.90;;;;;;5159382;27;20035;-77
2023/04/03 05:39:44;;;;;;;6.00;2.10;;;3.80;99.90;;;;;;5159866;27;20110;-77
2023/04/03 05:42:11;;;;;;;18.27;2.75;;;3.80;99.90;;;;;;5141573;27;20030;-77
2023/04/03 05:44:37;;;;;;;9.57;2.38;;;3.70;99.90;;;;;;5159449;27;20057;-77
2023/04/03 05:47:03;;;;;;;9.85;2.80;;;3.70;99.90;;;;;;5159238;27;20030;-77
2023/04/03 05:49:29;;;;;;;7.95;2.60;;;3.80;99.90;;;;;;5159150;27;20326;-76
2023/04/03 05:51:55;;;;;;;6.47;2.33;;;3.80;99.90;;;;;;5158806;27;20047;-76
2023/04/03 05:54:27;;;;;;;13.57;2.42;;;3.80;99.90;;;;;;5162460;27;20091;-76
2023/04/03 05:56:53;;;;;;;8.15;1.92;;;4.00;99.90;;;;;;5163428;27;20045;-77
2023/04/03 05:59:20;;;;;;;6.88;2.10;;;4.10;99.90;;;;;;5163426;27;20043;-77
2023/04/03 06:01:46;;;;;;;9.23;2.40;;;4.10;99.90;;;;;;5162726;27;20054;-76
2023/04/03 06:04:13;;;;;;;13.77;2.50;;;4.10;99.90;;;;;;5162627;27;20121;-77
2023/04/03 06:06:53;;;;;;;16.10;2.60;;;4.20;99.90;;;;;;5162907;27;20034;-76
2023/04/03 06:09:21;;;;;;;11.02;2.83;;;4.20;99.90;;;;;;5163059;27;20038;-76
2023/04/03 06:11:47;;;;;;;8.18;2.53;;;4.10;99.90;;;;;;5163043;27;20043;-77
2023/04/03 06:14:13;;;;;;;11.85;2.95;;;4.10;99.90;;;;;;5162701;27;20038;-77
2023/04/03 06:16:39;;;;;;;12.50;2.45;;;4.10;99.90;;;;;;5162519;27;20066;-77
2023/04/03 06:19:06;;;;;;;9.30;2.33;;;4.20;99.90;;;;;;5162540;27;20118;-77
2023/04/03 06:21:32;;;;;;;10.23;2.45;;;4.40;99.90;;;;;;5162512;27;20319;-76
2023/04/03 06:23:58;;;;;;;8.82;2.05;;;4.40;99.90;;;;;;5162605;27;20039;-76
2023/04/03 06:26:24;;;;;;;7.45;2.35;;;4.40;99.90;;;;;;5162631;27;20071;-76
2023/04/03 06:28:49;;;;;;;11.98;2.47;;;4.50;99.90;;;;;;5162751;27;20412;-77
2023/04/03 06:31:16;;;;;;;9.23;2.53;;;4.60;99.90;;;;;;5162887;27;20152;-77
2023/04/03 06:33:42;;;;;;;6.05;1.98;;;4.50;99.90;;;;;;5162909;27;20159;-76
2023/04/03 06:36:10;;;;;;;8.35;1.92;;;4.60;99.90;;;;;;5162171;27;20063;-77
2023/04/03 06:38:36;;;;;;;9.98;2.28;;;4.70;99.90;;;;;;5162216;27;20047;-76
2023/04/03 06:41:01;;;;;;;9.52;2.25;;;4.60;99.90;;;;;;5162313;27;20118;-76
2023/04/03 06:43:27;;;;;;;10.38;2.05;;;4.60;99.90;;;;;;5162379;27;20034;-76
2023/04/03 06:45:53;;;;;;;7.40;2.55;;;4.60;99.90;;;;;;5161597;27;20327;-76
2023/04/03 06:48:18;;;;;;;9.90;2.70;;;4.80;99.90;;;;;;5162117;27;20034;-76
2023/04/03 06:50:44;;;;;;;7.38;1.92;;;4.90;99.90;;;;;;5162251;27;20038;-77
2023/04/03 06:53:10;;;;;;;8.63;2.90;;;4.90;99.90;;;;;;5162294;27;20035;-76
2023/04/03 06:55:36;;;;;;;7.72;2.50;;;5.10;99.90;;;;;;5161506;27;20069;-76
2023/04/03 06:58:03;;;;;;;9.23;2.47;;;5.10;99.90;;;;;;5161515;27;20042;-76
2023/04/03 07:00:30;;;;;;;8.98;2.85;;;5.10;99.90;;;;;;5161443;27;20053;-76
2023/04/03 07:02:57;;;;;;;11.05;2.53;;;5.00;99.90;;;;;;5161532;27;20051;-76
2023/04/03 07:05:24;;;;;;;7.10;2.38;;;5.00;99.90;;;;;;5160745;27;20038;-76
2023/04/03 07:07:51;;;;;;;6.50;1.98;;;5.00;99.90;;;;;;5161735;27;20102;-76
2023/04/03 07:10:17;;;;;;;7.00;2.25;;;5.00;99.90;;;;;;5161639;27;20049;-76
2023/04/03 07:12:42;;;;;;;8.02;2.15;;;5.00;99.90;;;;;;5161583;27;20035;-76
2023/04/03 07:15:09;;;;;;;6.78;1.77;;;5.00;99.90;;;;;;5162013;27;20458;-76
2023/04/03 07:17:36;;;;;;;6.18;2.03;;;5.00;99.90;;;;;;5161551;27;20042;-76
2023/04/03 07:20:03;;;;;;;10.73;2.28;;;4.90;99.90;;;;;;5143068;27;20042;-76
2023/04/03 07:22:29;;;;;;;6.15;1.83;;;5.10;99.90;;;;;;5161232;27;20443;-76
2023/04/03 07:24:55;;;;;;;6.57;1.52;;;5.30;99.90;;;;;;5161363;27;20131;-75
2023/04/03 07:27:21;;;;;;;4.55;1.40;;;5.30;99.90;;;;;;5160973;27;20332;-72
2023/04/03 07:29:48;;;;;;;5.03;1.77;;;5.40;99.90;;;;;;5142838;27;20031;-69
2023/04/03 07:32:14;;;;;;;5.90;1.40;;;5.40;99.90;;;;;;5161000;27;20042;-69
2023/04/03 07:34:40;;;;;;;7.13;1.80;;;5.30;99.90;;;;;;5160305;27;20067;-69
2023/04/03 07:37:06;;;;;;;6.22;1.33;;;5.30;99.90;;;;;;5160979;27;20043;-65
2023/04/03 07:39:33;;;;;;;5.35;1.42;;;5.30;99.90;;;;;;5142591;27;20031;-68
2023/04/03 07:41:59;;;;;;;5.18;1.67;;;5.40;99.90;;;;;;5142431;27;20087;-68
2023/04/03 07:44:25;;;;;;;6.72;1.52;;;5.40;99.90;;;;;;5142201;27;20038;-68
2023/04/03 07:46:50;;;;;;;5.03;1.65;;;5.50;99.90;;;;;;5160414;27;20031;-68
2023/04/03 07:49:18;;;;;;;7.53;1.52;;;5.60;99.90;;;;;;5160334;27;20035;-68
2023/04/03 07:51:44;;;;;;;9.15;1.70;;;5.70;99.90;;;;;;5142257;27;20425;-66
2023/04/03 07:54:10;;;;;;;6.40;1.40;;;5.90;99.90;;;;;;5142199;27;20121;-68
2023/04/03 07:56:36;;;;;;;8.05;1.30;;;5.70;99.90;;;;;;5160491;27;20043;-66
2023/04/03 07:59:02;;;;;;;6.40;1.55;;;5.50;99.90;;;;;;5160199;27;20114;-68
2023/04/03 08:01:28;;;;;;;7.68;1.60;;;5.50;99.90;;;;;;5160030;27;20089;-67
2023/04/03 08:03:54;;;;;;;7.30;1.52;;;5.70;99.90;;;;;;5160382;27;20034;-67
2023/04/03 08:06:19;;;;;;;11.32;1.50;;;5.80;99.90;;;;;;5141338;27;20103;-69
2023/04/03 08:08:45;;;;;;;6.32;1.10;;;6.00;99.90;;;;;;5142020;27;20043;-68
2023/04/03 08:11:14;;;;;;;6.68;1.67;;;6.00;99.90;;;;;;5159884;27;20050;-68
2023/04/03 08:13:41;;;;;;;5.85;1.25;;;6.00;99.90;;;;;;5160189;27;20042;-68
2023/04/03 08:16:09;;;;;;;3.42;1.17;;;6.10;99.90;;;;;;5140505;27;20046;-68
2023/04/03 08:18:34;;;;;;;6.63;1.50;;;6.20;99.90;;;;;;5141714;27;20042;-68
2023/04/03 08:21:00;;;;;;;5.30;0.93;;;6.30;99.90;;;;;;5159909;27;20091;-68
2023/04/03 08:23:26;;;;;;;4.78;1.35;;;6.40;99.90;;;;;;5159662;27;20045;-68
2023/04/03 08:25:52;;;;;;;7.28;1.83;;;6.50;99.90;;;;;;5159584;27;20038;-67
2023/04/03 08:28:17;;;;;;;5.47;1.60;;;6.40;99.90;;;;;;5159544;27;20042;-68
2023/04/03 08:30:44;;;;;;;6.18;1.75;;;6.60;99.90;;;;;;5159507;27;20127;-67
2023/04/03 08:33:10;;;;;;;6.97;1.20;;;6.40;99.90;;;;;;5159778;27;20350;-68
2023/04/03 08:35:41;;;;;;;4.65;1.05;;;6.60;99.90;;;;;;5159328;27;20045;-68
2023/04/03 08:38:08;;;;;;;4.20;1.38;;;6.80;99.90;;;;;;5159672;27;20042;-68
2023/04/03 08:40:33;;;;;;;3.70;1.30;;;6.90;99.90;;;;;;5159296;27;20049;-68
2023/04/03 08:43:17;;;;;;;6.95;1.73;;;6.80;99.90;;;;;;5159555;27;20031;-68
2023/04/03 08:45:52;;;;;;;5.00;1.38;;;7.10;99.90;;;;;;5159536;27;20031;-68
2023/04/03 08:48:30;;;;;;;4.30;1.20;;;7.10;99.90;;;;;;5141174;27;20064;-68
2023/04/03 08:51:15;;;;;;;5.35;1.30;;;7.30;99.90;;;;;;5141151;27;20129;-68
2023/04/03 08:53:54;;;;;;;6.68;1.73;;;7.60;99.90;;;;;;5159090;27;20065;-68
2023/04/03 08:56:20;;;;;;;5.97;1.50;;;7.90;99.90;;;;;;5159010;27;20046;-68
2023/04/03 08:58:52;;;;;;;10.73;1.77;;;7.70;99.90;;;;;;5159224;27;20043;-68
2023/04/03 09:01:24;;;;;;;8.20;1.48;;;7.80;99.90;;;;;;5158944;27;20086;-68
2023/04/03 09:03:50;;;;;;;9.65;1.50;;;8.00;99.90;;;;;;5159254;27;20361;-68
2023/04/03 09:06:22;;;;;;;6.10;1.35;;;8.10;99.90;;;;;;5158713;27;20088;-68
2023/04/03 09:09:02;;;;;;;5.25;1.40;;;8.30;99.90;;;;;;5158802;27;20491;-68
2023/04/03 09:11:53;;;;;;;9.52;1.20;;;8.10;99.90;;;;;;5159106;27;20099;-68
2023/04/03 09:14:37;;;;;;;4.55;1.20;;;8.00;99.90;;;;;;5158688;27;20439;-68
2023/04/03 09:17:21;;;;;;;5.65;1.45;;;7.80;99.90;;;;;;5159023;27;20038;-67
2023/04/03 09:19:50;;;;;;;6.82;1.08;;;8.00;99.90;;;;;;5158893;27;20038;-67
2023/04/03 09:22:27;;;;;;;4.07;0.77;;;8.00;99.90;;;;;;5158880;27;20046;-68
2023/04/03 09:25:02;;;;;;;4.15;1.20;;;8.10;99.90;;;;;;5158766;27;20034;-68
2023/04/03 09:27:28;;;;;;;5.43;1.05;;;8.30;99.90;;;;;;5158510;27;20038;-68
2023/04/03 09:29:56;;;;;;;6.00;0.95;;;8.50;99.90;;;;;;5158807;27;20034;-68
2023/04/03 09:32:29;;;;;;;2.97;0.90;;;8.60;99.90;;;;;;5158469;27;20030;-68
2023/04/03 09:34:59;;;;;;;5.53;1.02;;;8.50;99.90;;;;;;5158019;27;20145;-68
2023/04/03 09:37:38;;;;;;;5.68;1.15;;;8.50;99.90;;;;;;5158658;27;20038;-68
2023/04/03 09:40:05;;;;;;;5.38;1.35;;;9.00;99.90;;;;;;5158354;27;20043;-68
2023/04/03 09:42:32;;;;;;;9.80;1.02;;;9.10;99.90;;;;;;5139295;27;20082;-68
2023/04/03 09:45:03;;;;;;;2.22;1.00;;;9.10;99.90;;;;;;5158410;27;20123;-68
2023/04/03 09:47:34;;;;;;;2.90;0.68;;;9.10;99.90;;;;;;5155669;27;20023;-68
2023/04/03 09:50:15;;;;;;;4.20;0.95;;;9.20;99.90;;;;;;5158349;27;20084;-68
2023/04/03 09:52:51;;;;;;;6.43;1.08;;;9.40;99.90;;;;;;5158326;27;20109;-68
2023/04/03 09:55:29;;;;;;;4.28;0.90;;;9.40;99.90;;;;;;5158087;27;20423;-69
2023/04/03 09:58:03;;;;;;;4.28;0.98;;;9.20;99.90;;;;;;5158284;27;20115;-68
2023/04/03 10:00:37;;;;;;;4.55;1.30;;;9.20;99.90;;;;;;5135819;28;20096;-68
2023/04/03 10:03:04;;;;;;;3.75;0.90;;;9.40;99.90;;;;;;5137086;28;20055;-68
2023/04/03 10:05:40;;;;;;;2.78;0.95;;;9.40;99.90;;;;;;5137516;27;20118;-68
2023/04/03 10:08:15;;;;;;;4.60;0.68;;;9.40;99.90;;;;;;5137549;28;20043;-71
2023/04/03 10:10:43;;;;;;;54.15;2.47;;;9.60;99.90;;;;;;5137430;28;20047;-73
2023/04/03 10:13:13;;;;;;;3.40;0.70;;;9.40;99.90;;;;;;5136259;27;20409;-68
2023/04/03 10:15:46;;;;;;;4.03;1.40;;;9.30;99.90;;;;;;5151230;27;20058;-69
2023/04/03 10:18:44;;;;;;;6.47;1.02;;;9.60;99.90;;;;;;5138407;27;20400;-69
2023/04/03 10:21:33;;;;;;;3.40;0.80;;;9.90;99.90;;;;;;5149163;27;20034;-69
2023/04/03 10:24:12;;;;;;;5.35;0.50;;;10.10;99.90;;;;;;5157320;27;20045;-69
2023/04/03 10:26:58;;;;;;;2.95;0.60;;;10.60;99.90;;;;;;5158187;27;20045;-69
2023/04/03 10:29:41;;;;;;;2.53;0.63;;;10.80;99.90;;;;;;5157923;27;20049;-68
2023/04/03 10:32:40;;;;;;;1.73;0.35;;;11.10;99.90;;;;;;5158145;27;20070;-69
2023/04/03 10:35:24;;;;;;;1.73;0.45;;;11.10;99.90;;;;;;5138895;27;20391;-73
2023/04/03 10:38:01;;;;;;;1.75;0.50;;;10.90;99.90;;;;;;5148282;27;20459;-69
2023/04/03 10:40:33;;;;;;;2.10;0.40;;;10.70;99.90;;;;;;5137938;27;20040;-68
2023/04/03 10:43:05;;;;;;;2.28;0.47;;;10.90;99.90;;;;;;5123090;27;20121;-69
2023/04/03 10:45:53;;;;;;;1.35;0.38;;;11.10;99.90;;;;;;5141210;27;20057;-69
2023/04/03 10:48:51;;;;;;;3.17;0.85;;;11.20;99.90;;;;;;5141140;27;20046;-69
2023/04/03 10:51:31;;;;;;;1.55;0.40;;;11.10;99.90;;;;;;5141052;27;20042;-68
2023/04/03 10:54:17;;;;;;;3.03;0.80;;;11.40;99.90;;;;;;5141063;27;20035;-69
2023/04/03 10:56:50;;;;;;;2.00;0.40;;;11.60;99.90;;;;;;5140012;27;20061;-68
2023/04/03 10:59:33;;;;;;;53.90;2.63;;;11.70;99.90;;;;;;5140992;27;20074;-71
2023/04/03 11:02:26;;;;;;;2.90;0.63;;;12.00;99.90;;;;;;5140408;27;20047;-71
2023/04/03 11:04:57;;;;;;;1.95;0.45;;;12.20;99.90;;;;;;5140233;27;20431;-74
2023/04/03 11:07:32;;;;;;;1.95;0.88;;;12.20;99.90;;;;;;5140548;27;20063;-72
2023/04/03 11:10:36;;;;;;;3.17;0.60;;;12.00;99.90;;;;;;5140769;27;20032;-72
2023/04/03 11:13:12;;;;;;;3.05;0.47;;;12.20;99.90;;;;;;5140682;27;20039;-72
2023/04/03 11:15:38;;;;;;;3.83;0.68;;;12.40;99.90;;;;;;5140695;27;20058;-71
2023/04/03 11:18:29;;;;;;;3.63;0.60;;;12.10;99.90;;;;;;5140558;27;20082;-70
2023/04/03 11:21:21;;;;;;;1.98;0.50;;;12.60;99.90;;;;;;5122314;27;20100;-69
2023/04/03 11:23:47;;;;;;;1.65;0.70;;;12.60;99.90;;;;;;5140493;27;20038;-68
2023/04/03 11:26:16;;;;;;;1.98;0.55;;;12.70;99.90;;;;;;5140502;27;20038;-73
2023/04/03 11:28:42;;;;;;;2.80;0.90;;;12.40;99.90;;;;;;5140384;27;20084;-73
2023/04/03 11:31:38;;;;;;;6.38;0.75;;;11.70;99.90;;;;;;5140322;27;20102;-69
2023/04/03 11:34:40;;;;;;;2.05;0.60;;;11.70;99.90;;;;;;5140327;27;20054;-69
2023/04/03 11:37:17;;;;;;;1.60;0.43;;;12.50;99.90;;;;;;5119944;27;20055;-69
2023/04/03 11:40:09;;;;;;;1.80;0.55;;;13.00;99.90;;;;;;5140174;27;20051;-69
2023/04/03 11:42:39;;;;;;;1.38;0.40;;;13.10;99.90;;;;;;5139441;27;20087;-69
2023/04/03 11:45:34;;;;;;;1.73;0.68;;;13.50;99.90;;;;;;5140103;27;20038;-69
2023/04/03 11:48:17;;;;;;;1.65;0.50;;;13.70;99.90;;;;;;5103097;27;20124;-69
2023/04/03 11:50:45;;;;;;;3.42;0.50;;;14.00;99.90;;;;;;5139730;27;20069;-69
2023/04/03 11:53:14;;;;;;;3.08;0.43;;;14.20;99.90;;;;;;5121778;27;20043;-69
2023/04/03 11:55:49;;;;;;;4.10;0.60;;;14.00;99.90;;;;;;5139635;27;20069;-73
2023/04/03 11:58:27;;;;;;;2.78;0.65;;;13.40;99.90;;;;;;5139828;27;20075;-72
2023/04/03 12:00:56;;;;;;;3.55;0.60;;;13.40;99.90;;;;;;5139693;27;20106;-71
2023/04/03 12:05:52;;;;;;;2.15;0.85;;;12.10;99.90;;;;;;5139184;27;20042;-72
2023/04/03 12:08:28;;;;;;;2.78;0.60;;;12.40;99.90;;;;;;5139285;27;20035;-71
2023/04/03 12:11:08;;;;;;;3.38;0.50;;;12.50;99.90;;;;;;5139592;27;20043;-73
2023/04/03 12:13:42;;;;;;;2.78;0.60;;;12.40;99.90;;;;;;5139441;27;20047;-73
2023/04/03 12:16:21;;;;;;;3.53;0.60;;;12.30;99.90;;;;;;5139427;27;20118;-73
2023/04/03 12:18:52;;;;;;;2.25;0.47;;;12.50;99.90;;;;;;5138949;27;20035;-73
2023/04/03 12:22:03;;;;;;;2.38;0.47;;;12.70;99.90;;;;;;5120871;27;20467;-73
2023/04/03 12:24:31;;;;;;;3.25;0.70;;;12.60;99.90;;;;;;5138936;27;20054;-73
2023/04/03 12:26:57;;;;;;;2.65;0.50;;;12.90;99.90;;;;;;5139166;27;20035;-73
2023/04/03 12:29:28;;;;;;;1.95;0.60;;;12.90;99.90;;;;;;5120713;27;20092;-73
2023/04/03 12:32:21;;;;;;;2.97;1.08;;;12.90;99.90;;;;;;5139603;27;20076;-73
2023/04/03 12:35:03;;;;;;;1.63;0.30;;;12.80;99.90;;;;;;5138673;27;20046;-70
2023/04/03 12:37:43;;;;;;;3.47;0.70;;;12.90;99.90;;;;;;5138994;27;20096;-70
2023/04/03 12:40:14;;;;;;;3.13;0.57;;;13.70;99.90;;;;;;5138595;27;20470;-70
2023/04/03 12:43:09;;;;;;;2.25;0.60;;;14.10;99.90;;;;;;5138906;27;20061;-70
2023/04/03 12:45:44;;;;;;;2.75;0.60;;;14.50;99.90;;;;;;5138696;27;20047;-70
2023/04/03 12:48:22;;;;;;;3.15;1.00;;;14.70;99.90;;;;;;5138805;27;20039;-70
2023/04/03 12:50:49;;;;;;;1.60;0.50;;;15.00;99.90;;;;;;5138816;27;20084;-70
2023/04/03 12:53:21;;;;;;;1.52;0.52;;;15.40;99.90;;;;;;5138714;27;20078;-70
2023/04/03 12:55:46;;;;;;;2.17;0.57;;;15.90;99.90;;;;;;5138685;27;20042;-69
2023/04/03 12:58:24;;;;;;;4.70;0.65;;;16.10;99.90;;;;;;5138597;27;20035;-70
2023/04/03 13:01:25;;;;;;;4.43;0.70;;;15.90;99.90;;;;;;5138527;27;20054;-71
2023/04/03 13:03:57;;;;;;;2.17;0.60;;;15.00;99.90;;;;;;5083880;27;20118;-72
2023/04/03 13:06:32;;;;;;;3.40;1.02;;;14.30;99.90;;;;;;5137918;27;20089;-73
2023/04/03 13:09:00;;;;;;;3.30;0.90;;;14.20;99.90;;;;;;5138320;27;20031;-75
2023/04/03 13:11:33;;;;;;;2.75;0.70;;;13.80;99.90;;;;;;5103085;27;20045;-72
2023/04/03 13:14:05;;;;;;;3.85;0.70;;;14.20;99.90;;;;;;5138461;27;20034;-72